sensor_id;sensor_type;location;lat;lon;timestamp;pressure;altitude;pressure_sealevel;temperature;humidity
10852;BME280;5479;52.046;6.314;2022-11-15T00:01:15;100822.78;;;7.86;100.00
10852;BME280;5479;52.046;6.314;2022-11-15T00:03:44;100820.94;;;7.88;100.00
10852;BME280;5479;52.046;6.314;2022-11-15T00:06:14;100838.28;;;7.92;100.00
10852;BME280;5479;52.046;6.314;2022-11-15T00:08:41;100814.38;;;7.97;100.00
10852;BME280;5479;52.046;6.314;2022-11-15T00:11:11;100816.91;;;7.98;100.00
10852;BME280;5479;52.046;6.314;2022-11-15T00:13:39;100821.47;;;7.95;100.00
10852;BME280;5479;52.046;6.314;2022-11-15T00:16:08;100822.19;;;7.98;100.00
10852;BME280;5479;52.046;6.314;2022-11-15T00:18:37;100826.41;;;8.02;100.00
10852;BME280;5479;52.046;6.314;2022-11-15T00:21:09;100816.63;;;8.04;100.00
10852;BME280;5479;52.046;6.314;2022-11-15T00:23:38;100813.22;;;8.02;100.00
10852;BME280;5479;52.046;6.314;2022-11-15T00:26:08;100801.09;;;7.98;100.00
10852;BME280;5479;52.046;6.314;2022-11-15T00:28:40;100805.16;;;8.05;100.00
10852;BME280;5479;52.046;6.314;2022-11-15T00:31:11;100808.78;;;8.03;100.00
10852;BME280;5479;52.046;6.314;2022-11-15T00:33:42;100809.72;;;8.02;100.00
10852;BME280;5479;52.046;6.314;2022-11-15T00:36:10;100802.34;;;8.08;100.00
10852;BME280;5479;52.046;6.314;2022-11-15T00:38:39;100806.31;;;8.17;100.00
10852;BME280;5479;52.046;6.314;2022-11-15T00:41:07;100793.38;;;8.12;100.00
10852;BME280;5479;52.046;6.314;2022-11-15T00:43:36;100802.00;;;8.16;100.00
10852;BME280;5479;52.046;6.314;2022-11-15T00:46:04;100793.06;;;8.18;100.00
10852;BME280;5479;52.046;6.314;2022-11-15T00:48:32;100795.53;;;8.21;100.00
10852;BME280;5479;52.046;6.314;2022-11-15T00:50:59;100785.31;;;8.15;100.00
10852;BME280;5479;52.046;6.314;2022-11-15T00:53:27;100799.03;;;8.22;100.00
10852;BME280;5479;52.046;6.314;2022-11-15T00:55:57;100789.13;;;8.27;100.00
10852;BME280;5479;52.046;6.314;2022-11-15T00:58:25;100788.47;;;8.22;100.00
10852;BME280;5479;52.046;6.314;2022-11-15T01:00:53;100781.38;;;8.24;100.00
10852;BME280;5479;52.046;6.314;2022-11-15T01:03:21;100795.34;;;8.26;100.00
10852;BME280;5479;52.046;6.314;2022-11-15T01:05:49;100792.69;;;8.26;100.00
10852;BME280;5479;52.046;6.314;2022-11-15T01:08:17;100787.34;;;8.27;100.00
10852;BME280;5479;52.046;6.314;2022-11-15T01:10:45;100775.66;;;8.33;100.00
10852;BME280;5479;52.046;6.314;2022-11-15T01:13:14;100774.50;;;8.38;100.00
10852;BME280;5479;52.046;6.314;2022-11-15T01:15:42;100776.97;;;8.41;100.00
10852;BME280;5479;52.046;6.314;2022-11-15T01:18:10;100771.41;;;8.47;100.00
10852;BME280;5479;52.046;6.314;2022-11-15T01:20:39;100769.06;;;8.41;100.00
10852;BME280;5479;52.046;6.314;2022-11-15T01:23:08;100759.88;;;8.48;100.00
10852;BME280;5479;52.046;6.314;2022-11-15T01:25:37;100769.59;;;8.48;100.00
10852;BME280;5479;52.046;6.314;2022-11-15T01:28:05;100755.47;;;8.49;100.00
10852;BME280;5479;52.046;6.314;2022-11-15T01:30:43;100761.59;;;8.49;100.00
10852;BME280;5479;52.046;6.314;2022-11-15T01:33:11;100763.13;;;8.54;100.00
10852;BME280;5479;52.046;6.314;2022-11-15T01:35:39;100762.13;;;8.56;100.00
10852;BME280;5479;52.046;6.314;2022-11-15T01:38:07;100763.00;;;8.57;100.00
10852;BME280;5479;52.046;6.314;2022-11-15T01:40:35;100760.97;;;8.62;100.00
10852;BME280;5479;52.046;6.314;2022-11-15T01:43:21;100762.69;;;8.63;100.00
10852;BME280;5479;52.046;6.314;2022-11-15T01:45:53;100749.63;;;8.60;100.00
10852;BME280;5479;52.046;6.314;2022-11-15T01:48:26;100751.03;;;8.67;100.00
10852;BME280;5479;52.046;6.314;2022-11-15T01:50:56;100746.53;;;8.69;100.00
10852;BME280;5479;52.046;6.314;2022-11-15T01:53:25;100746.69;;;8.66;100.00
10852;BME280;5479;52.046;6.314;2022-11-15T01:55:54;100749.94;;;8.71;100.00
10852;BME280;5479;52.046;6.314;2022-11-15T01:58:22;100739.22;;;8.74;100.00
10852;BME280;5479;52.046;6.314;2022-11-15T02:00:52;100736.06;;;8.83;100.00
10852;BME280;5479;52.046;6.314;2022-11-15T02:03:22;100733.13;;;8.89;100.00
10852;BME280;5479;52.046;6.314;2022-11-15T02:05:53;100736.03;;;9.00;100.00
10852;BME280;5479;52.046;6.314;2022-11-15T02:08:21;100733.56;;;8.97;100.00
10852;BME280;5479;52.046;6.314;2022-11-15T02:10:50;100727.34;;;8.98;100.00
10852;BME280;5479;52.046;6.314;2022-11-15T02:13:19;100736.91;;;9.00;100.00
10852;BME280;5479;52.046;6.314;2022-11-15T02:15:55;100742.63;;;9.08;100.00
10852;BME280;5479;52.046;6.314;2022-11-15T02:18:28;100729.56;;;9.05;100.00
10852;BME280;5479;52.046;6.314;2022-11-15T02:21:10;100736.91;;;9.00;100.00
10852;BME280;5479;52.046;6.314;2022-11-15T02:30:00;100718.59;;;9.13;100.00
10852;BME280;5479;52.046;6.314;2022-11-15T02:32:36;100722.00;;;9.15;100.00
10852;BME280;5479;52.046;6.314;2022-11-15T02:35:14;100720.97;;;9.18;100.00
10852;BME280;5479;52.046;6.314;2022-11-15T02:37:47;100729.16;;;9.13;100.00
10852;BME280;5479;52.046;6.314;2022-11-15T02:40:28;100721.06;;;9.16;100.00
10852;BME280;5479;52.046;6.314;2022-11-15T02:43:07;100718.88;;;9.24;100.00
10852;BME280;5479;52.046;6.314;2022-11-15T02:45:57;100723.97;;;9.27;100.00
10852;BME280;5479;52.046;6.314;2022-11-15T02:48:31;100719.63;;;9.26;100.00
10852;BME280;5479;52.046;6.314;2022-11-15T02:51:01;100711.69;;;9.26;100.00
10852;BME280;5479;52.046;6.314;2022-11-15T02:53:29;100707.78;;;9.33;100.00
10852;BME280;5479;52.046;6.314;2022-11-15T02:55:57;100705.38;;;9.29;100.00
10852;BME280;5479;52.046;6.314;2022-11-15T02:58:40;100710.78;;;9.27;100.00
10852;BME280;5479;52.046;6.314;2022-11-15T03:01:19;100703.28;;;9.35;100.00
10852;BME280;5479;52.046;6.314;2022-11-15T03:03:59;100712.56;;;9.42;100.00
10852;BME280;5479;52.046;6.314;2022-11-15T03:06:37;100698.41;;;9.43;100.00
10852;BME280;5479;52.046;6.314;2022-11-15T03:09:11;100695.50;;;9.48;100.00
10852;BME280;5479;52.046;6.314;2022-11-15T03:11:48;100702.56;;;9.47;100.00
10852;BME280;5479;52.046;6.314;2022-11-15T03:14:21;100690.31;;;9.46;100.00
10852;BME280;5479;52.046;6.314;2022-11-15T03:16:58;100689.78;;;9.55;100.00
10852;BME280;5479;52.046;6.314;2022-11-15T03:19:39;100690.56;;;9.57;100.00
10852;BME280;5479;52.046;6.314;2022-11-15T03:22:14;100679.13;;;9.57;100.00
10852;BME280;5479;52.046;6.314;2022-11-15T03:24:47;100675.34;;;9.61;100.00
10852;BME280;5479;52.046;6.314;2022-11-15T03:27:22;100689.44;;;9.61;100.00
10852;BME280;5479;52.046;6.314;2022-11-15T03:29:54;100669.38;;;9.73;100.00
10852;BME280;5479;52.046;6.314;2022-11-15T03:32:25;100671.34;;;9.69;100.00
10852;BME280;5479;52.046;6.314;2022-11-15T03:34:57;100673.97;;;9.69;100.00
10852;BME280;5479;52.046;6.314;2022-11-15T03:37:33;100670.59;;;9.67;100.00
10852;BME280;5479;52.046;6.314;2022-11-15T03:40:03;100664.97;;;9.74;100.00
10852;BME280;5479;52.046;6.314;2022-11-15T03:42:35;100664.75;;;9.77;100.00
10852;BME280;5479;52.046;6.314;2022-11-15T03:45:13;100672.69;;;9.77;100.00
10852;BME280;5479;52.046;6.314;2022-11-15T03:47:46;100672.50;;;9.80;100.00
10852;BME280;5479;52.046;6.314;2022-11-15T03:50:19;100677.78;;;9.80;100.00
10852;BME280;5479;52.046;6.314;2022-11-15T03:52:49;100678.75;;;9.79;100.00
10852;BME280;5479;52.046;6.314;2022-11-15T03:55:19;100680.28;;;9.83;100.00
10852;BME280;5479;52.046;6.314;2022-11-15T03:57:50;100673.09;;;9.85;100.00
10852;BME280;5479;52.046;6.314;2022-11-15T04:00:19;100679.91;;;9.89;100.00
10852;BME280;5479;52.046;6.314;2022-11-15T04:02:46;100679.16;;;9.87;100.00
10852;BME280;5479;52.046;6.314;2022-11-15T04:05:14;100678.22;;;9.88;100.00
10852;BME280;5479;52.046;6.314;2022-11-15T04:07:44;100679.75;;;9.92;100.00
10852;BME280;5479;52.046;6.314;2022-11-15T04:10:12;100672.47;;;9.95;100.00
10852;BME280;5479;52.046;6.314;2022-11-15T04:12:42;100677.97;;;9.92;100.00
10852;BME280;5479;52.046;6.314;2022-11-15T04:15:14;100682.38;;;9.92;100.00
10852;BME280;5479;52.046;6.314;2022-11-15T04:17:44;100680.69;;;9.91;100.00
10852;BME280;5479;52.046;6.314;2022-11-15T04:20:16;100687.56;;;9.93;100.00
10852;BME280;5479;52.046;6.314;2022-11-15T04:23:04;100696.78;;;10.02;100.00
10852;BME280;5479;52.046;6.314;2022-11-15T04:25:53;100693.00;;;10.06;100.00
10852;BME280;5479;52.046;6.314;2022-11-15T04:28:22;100686.47;;;10.13;100.00
10852;BME280;5479;52.046;6.314;2022-11-15T04:30:50;100687.97;;;10.17;100.00
10852;BME280;5479;52.046;6.314;2022-11-15T04:33:18;100682.94;;;10.12;100.00
10852;BME280;5479;52.046;6.314;2022-11-15T04:35:46;100689.56;;;10.19;100.00
10852;BME280;5479;52.046;6.314;2022-11-15T04:38:36;100689.72;;;10.32;100.00
10852;BME280;5479;52.046;6.314;2022-11-15T04:41:06;100686.28;;;10.30;100.00
10852;BME280;5479;52.046;6.314;2022-11-15T04:43:34;100688.00;;;10.31;100.00
10852;BME280;5479;52.046;6.314;2022-11-15T04:46:02;100691.41;;;10.33;100.00
10852;BME280;5479;52.046;6.314;2022-11-15T04:48:29;100680.63;;;10.36;100.00
10852;BME280;5479;52.046;6.314;2022-11-15T04:50:58;100683.09;;;10.39;100.00
10852;BME280;5479;52.046;6.314;2022-11-15T04:53:26;100682.16;;;10.40;100.00
10852;BME280;5479;52.046;6.314;2022-11-15T04:55:55;100683.50;;;10.47;100.00
10852;BME280;5479;52.046;6.314;2022-11-15T04:58:23;100675.25;;;10.52;100.00
10852;BME280;5479;52.046;6.314;2022-11-15T05:00:50;100673.84;;;10.60;100.00
10852;BME280;5479;52.046;6.314;2022-11-15T05:03:19;100663.06;;;10.63;100.00
10852;BME280;5479;52.046;6.314;2022-11-15T05:06:05;100677.06;;;10.65;100.00
10852;BME280;5479;52.046;6.314;2022-11-15T05:08:33;100676.69;;;10.71;100.00
10852;BME280;5479;52.046;6.314;2022-11-15T05:11:03;100677.38;;;10.75;100.00
10852;BME280;5479;52.046;6.314;2022-11-15T05:13:31;100678.97;;;10.77;100.00
10852;BME280;5479;52.046;6.314;2022-11-15T05:15:59;100671.78;;;10.79;100.00
10852;BME280;5479;52.046;6.314;2022-11-15T05:18:26;100674.06;;;10.85;100.00
10852;BME280;5479;52.046;6.314;2022-11-15T05:20:54;100665.13;;;10.86;100.00
10852;BME280;5479;52.046;6.314;2022-11-15T05:23:23;100669.31;;;10.90;100.00
10852;BME280;5479;52.046;6.314;2022-11-15T05:25:50;100663.03;;;10.91;100.00
10852;BME280;5479;52.046;6.314;2022-11-15T05:28:20;100658.53;;;10.94;100.00
10852;BME280;5479;52.046;6.314;2022-11-15T05:30:48;100653.13;;;10.95;100.00
10852;BME280;5479;52.046;6.314;2022-11-15T05:33:15;100662.59;;;10.99;100.00
10852;BME280;5479;52.046;6.314;2022-11-15T05:35:48;100659.09;;;10.99;100.00
10852;BME280;5479;52.046;6.314;2022-11-15T05:38:18;100663.63;;;10.97;100.00
10852;BME280;5479;52.046;6.314;2022-11-15T05:40:47;100667.53;;;10.91;100.00
10852;BME280;5479;52.046;6.314;2022-11-15T05:43:15;100661.75;;;10.99;100.00
10852;BME280;5479;52.046;6.314;2022-11-15T05:45:45;100663.41;;;11.00;100.00
10852;BME280;5479;52.046;6.314;2022-11-15T05:48:13;100662.66;;;10.98;100.00
10852;BME280;5479;52.046;6.314;2022-11-15T05:50:43;100666.06;;;11.00;100.00
10852;BME280;5479;52.046;6.314;2022-11-15T05:53:15;100662.00;;;11.08;100.00
10852;BME280;5479;52.046;6.314;2022-11-15T05:55:43;100658.41;;;11.09;100.00
10852;BME280;5479;52.046;6.314;2022-11-15T05:58:12;100658.09;;;11.14;100.00
10852;BME280;5479;52.046;6.314;2022-11-15T06:00:40;100667.03;;;11.13;100.00
10852;BME280;5479;52.046;6.314;2022-11-15T06:03:11;100675.91;;;11.12;100.00
10852;BME280;5479;52.046;6.314;2022-11-15T06:05:40;100674.38;;;11.08;100.00
10852;BME280;5479;52.046;6.314;2022-11-15T06:08:08;100674.00;;;11.14;100.00
10852;BME280;5479;52.046;6.314;2022-11-15T06:10:37;100676.47;;;11.17;100.00
10852;BME280;5479;52.046;6.314;2022-11-15T06:13:05;100676.28;;;11.20;100.00
10852;BME280;5479;52.046;6.314;2022-11-15T06:15:33;100674.56;;;11.19;100.00
10852;BME280;5479;52.046;6.314;2022-11-15T06:18:01;100678.06;;;11.19;100.00
10852;BME280;5479;52.046;6.314;2022-11-15T06:20:30;100678.06;;;11.19;100.00
10852;BME280;5479;52.046;6.314;2022-11-15T06:22:59;100684.59;;;11.14;100.00
10852;BME280;5479;52.046;6.314;2022-11-15T06:25:27;100680.63;;;11.21;100.00
10852;BME280;5479;52.046;6.314;2022-11-15T06:27:57;100677.22;;;11.19;100.00
10852;BME280;5479;52.046;6.314;2022-11-15T06:30:26;100681.88;;;11.15;100.00
10852;BME280;5479;52.046;6.314;2022-11-15T06:32:59;100682.50;;;11.19;100.00
10852;BME280;5479;52.046;6.314;2022-11-15T06:35:28;100686.13;;;11.18;100.00
10852;BME280;5479;52.046;6.314;2022-11-15T06:38:03;100688.88;;;11.16;100.00
10852;BME280;5479;52.046;6.314;2022-11-15T06:40:33;100687.25;;;11.14;100.00
10852;BME280;5479;52.046;6.314;2022-11-15T06:43:01;100701.47;;;11.13;100.00
10852;BME280;5479;52.046;6.314;2022-11-15T06:45:30;100701.84;;;11.21;100.00
10852;BME280;5479;52.046;6.314;2022-11-15T06:47:58;100695.13;;;11.15;100.00
10852;BME280;5479;52.046;6.314;2022-11-15T06:50:26;100700.88;;;11.08;100.00
10852;BME280;5479;52.046;6.314;2022-11-15T06:52:55;100704.75;;;11.16;100.00
10852;BME280;5479;52.046;6.314;2022-11-15T06:55:24;100703.91;;;11.16;100.00
10852;BME280;5479;52.046;6.314;2022-11-15T06:57:52;100709.88;;;11.19;100.00
10852;BME280;5479;52.046;6.314;2022-11-15T07:00:21;100710.72;;;11.20;100.00
10852;BME280;5479;52.046;6.314;2022-11-15T07:02:50;100707.34;;;11.18;100.00
10852;BME280;5479;52.046;6.314;2022-11-15T07:05:19;100710.06;;;11.16;100.00
10852;BME280;5479;52.046;6.314;2022-11-15T07:07:51;100713.09;;;11.24;100.00
10852;BME280;5479;52.046;6.314;2022-11-15T07:10:20;100723.97;;;11.20;100.00
10852;BME280;5479;52.046;6.314;2022-11-15T07:12:49;100718.56;;;11.21;100.00
10852;BME280;5479;52.046;6.314;2022-11-15T07:15:18;100719.44;;;11.22;100.00
10852;BME280;5479;52.046;6.314;2022-11-15T07:17:46;100721.03;;;11.24;100.00
10852;BME280;5479;52.046;6.314;2022-11-15T07:20:15;100711.19;;;11.26;100.00
10852;BME280;5479;52.046;6.314;2022-11-15T07:22:44;100707.78;;;11.24;100.00
10852;BME280;5479;52.046;6.314;2022-11-15T07:25:12;100707.16;;;11.21;100.00
10852;BME280;5479;52.046;6.314;2022-11-15T07:27:40;100705.72;;;11.15;100.00
10852;BME280;5479;52.046;6.314;2022-11-15T07:30:10;100710.00;;;11.18;100.00
10852;BME280;5479;52.046;6.314;2022-11-15T07:32:39;100715.53;;;11.27;100.00
10852;BME280;5479;52.046;6.314;2022-11-15T07:35:07;100720.97;;;11.26;100.00
10852;BME280;5479;52.046;6.314;2022-11-15T07:37:35;100730.31;;;11.31;100.00
10852;BME280;5479;52.046;6.314;2022-11-15T07:40:03;100734.56;;;11.34;100.00
10852;BME280;5479;52.046;6.314;2022-11-15T07:42:31;100727.56;;;11.33;100.00
10852;BME280;5479;52.046;6.314;2022-11-15T07:45:24;100735.41;;;11.34;100.00
10852;BME280;5479;52.046;6.314;2022-11-15T07:47:53;100724.16;;;11.31;100.00
10852;BME280;5479;52.046;6.314;2022-11-15T07:50:23;100722.06;;;11.36;100.00
10852;BME280;5479;52.046;6.314;2022-11-15T07:52:54;100728.59;;;11.30;100.00
10852;BME280;5479;52.046;6.314;2022-11-15T07:55:23;100731.06;;;11.33;100.00
10852;BME280;5479;52.046;6.314;2022-11-15T07:57:51;100735.50;;;11.33;100.00
10852;BME280;5479;52.046;6.314;2022-11-15T08:00:19;100739.88;;;11.34;100.00
10852;BME280;5479;52.046;6.314;2022-11-15T08:02:49;100747.06;;;11.32;100.00
10852;BME280;5479;52.046;6.314;2022-11-15T08:05:17;100729.84;;;11.25;100.00
10852;BME280;5479;52.046;6.314;2022-11-15T08:07:45;100737.97;;;11.22;100.00
10852;BME280;5479;52.046;6.314;2022-11-15T08:10:13;100742.16;;;11.26;100.00
10852;BME280;5479;52.046;6.314;2022-11-15T08:12:43;100739.22;;;11.30;100.00
10852;BME280;5479;52.046;6.314;2022-11-15T08:15:11;100734.78;;;11.31;100.00
10852;BME280;5479;52.046;6.314;2022-11-15T08:17:41;100729.28;;;11.34;100.00
10852;BME280;5479;52.046;6.314;2022-11-15T08:20:11;100734.34;;;11.37;100.00
10852;BME280;5479;52.046;6.314;2022-11-15T08:22:39;100728.97;;;11.38;100.00
10852;BME280;5479;52.046;6.314;2022-11-15T08:25:07;100738.16;;;11.33;100.00
10852;BME280;5479;52.046;6.314;2022-11-15T08:27:35;100728.88;;;11.40;100.00
10852;BME280;5479;52.046;6.314;2022-11-15T08:30:03;100729.72;;;11.40;100.00
10852;BME280;5479;52.046;6.314;2022-11-15T08:32:31;100735.69;;;11.44;100.00
10852;BME280;5479;52.046;6.314;2022-11-15T08:34:59;100732.06;;;11.45;100.00
10852;BME280;5479;52.046;6.314;2022-11-15T08:37:28;100736.53;;;11.44;100.00
10852;BME280;5479;52.046;6.314;2022-11-15T08:39:56;100735.88;;;11.41;100.00
10852;BME280;5479;52.046;6.314;2022-11-15T08:42:24;100732.28;;;11.42;100.00
10852;BME280;5479;52.046;6.314;2022-11-15T08:44:52;100718.72;;;11.46;100.00
10852;BME280;5479;52.046;6.314;2022-11-15T08:47:20;100719.97;;;11.41;100.00
10852;BME280;5479;52.046;6.314;2022-11-15T08:49:50;100726.38;;;11.51;100.00
10852;BME280;5479;52.046;6.314;2022-11-15T08:52:18;100716.44;;;11.55;100.00
10852;BME280;5479;52.046;6.314;2022-11-15T08:54:48;100717.00;;;11.60;100.00
10852;BME280;5479;52.046;6.314;2022-11-15T08:57:16;100717.41;;;11.80;100.00
10852;BME280;5479;52.046;6.314;2022-11-15T08:59:44;100709.25;;;11.83;100.00
10852;BME280;5479;52.046;6.314;2022-11-15T09:02:13;100710.06;;;11.98;100.00
10852;BME280;5479;52.046;6.314;2022-11-15T09:04:42;100705.94;;;12.06;100.00
10852;BME280;5479;52.046;6.314;2022-11-15T09:07:10;100710.09;;;12.10;100.00
10852;BME280;5479;52.046;6.314;2022-11-15T09:09:39;100706.16;;;12.03;100.00
10852;BME280;5479;52.046;6.314;2022-11-15T09:12:08;100702.00;;;11.99;100.00
10852;BME280;5479;52.046;6.314;2022-11-15T09:14:36;100696.97;;;11.82;100.00
10852;BME280;5479;52.046;6.314;2022-11-15T09:17:07;100693.03;;;11.88;100.00
10852;BME280;5479;52.046;6.314;2022-11-15T09:19:35;100696.19;;;11.80;100.00
10852;BME280;5479;52.046;6.314;2022-11-15T09:22:05;100700.50;;;11.95;100.00
10852;BME280;5479;52.046;6.314;2022-11-15T09:24:35;100700.63;;;12.06;100.00
10852;BME280;5479;52.046;6.314;2022-11-15T09:27:03;100697.53;;;12.00;100.00
10852;BME280;5479;52.046;6.314;2022-11-15T09:29:32;100701.81;;;12.15;100.00
10852;BME280;5479;52.046;6.314;2022-11-15T09:32:00;100694.06;;;12.12;100.00
10852;BME280;5479;52.046;6.314;2022-11-15T09:34:28;100696.69;;;11.99;100.00
10852;BME280;5479;52.046;6.314;2022-11-15T09:36:56;100691.56;;;11.96;100.00
10852;BME280;5479;52.046;6.314;2022-11-15T09:39:24;100687.97;;;11.97;100.00
10852;BME280;5479;52.046;6.314;2022-11-15T09:42:12;100691.78;;;11.93;100.00
10852;BME280;5479;52.046;6.314;2022-11-15T09:45:14;100691.38;;;11.99;100.00
10852;BME280;5479;52.046;6.314;2022-11-15T09:48:33;100686.81;;;12.01;100.00
10852;BME280;5479;52.046;6.314;2022-11-15T09:51:11;100686.06;;;11.99;100.00
10852;BME280;5479;52.046;6.314;2022-11-15T09:53:46;100673.13;;;12.07;100.00
10852;BME280;5479;52.046;6.314;2022-11-15T09:56:19;100675.81;;;12.20;100.00
10852;BME280;5479;52.046;6.314;2022-11-15T09:58:54;100674.25;;;12.55;100.00
10852;BME280;5479;52.046;6.314;2022-11-15T10:01:36;100659.47;;;12.89;100.00
10852;BME280;5479;52.046;6.314;2022-11-15T10:04:08;100661.66;;;13.20;100.00
10852;BME280;5479;52.046;6.314;2022-11-15T10:06:38;100661.06;;;12.92;100.00
10852;BME280;5479;52.046;6.314;2022-11-15T10:09:13;100651.50;;;12.64;100.00
10852;BME280;5479;52.046;6.314;2022-11-15T10:11:49;100647.97;;;12.89;100.00
10852;BME280;5479;52.046;6.314;2022-11-15T10:14:19;100649.59;;;12.66;100.00
10852;BME280;5479;52.046;6.314;2022-11-15T10:17:06;100639.28;;;12.74;100.00
10852;BME280;5479;52.046;6.314;2022-11-15T10:19:39;100643.63;;;12.75;100.00
10852;BME280;5479;52.046;6.314;2022-11-15T10:22:29;100641.19;;;12.72;100.00
10852;BME280;5479;52.046;6.314;2022-11-15T10:25:14;100638.25;;;13.00;100.00
10852;BME280;5479;52.046;6.314;2022-11-15T10:27:47;100629.63;;;13.93;100.00
10852;BME280;5479;52.046;6.314;2022-11-15T10:30:28;100621.66;;;14.83;100.00
10852;BME280;5479;52.046;6.314;2022-11-15T10:33:09;100617.63;;;15.11;100.00
10852;BME280;5479;52.046;6.314;2022-11-15T10:35:38;100608.31;;;14.61;100.00
10852;BME280;5479;52.046;6.314;2022-11-15T10:38:10;100615.75;;;15.23;100.00
10852;BME280;5479;52.046;6.314;2022-11-15T10:40:40;100611.09;;;14.93;100.00
10852;BME280;5479;52.046;6.314;2022-11-15T10:43:15;100609.41;;;14.70;100.00
10852;BME280;5479;52.046;6.314;2022-11-15T10:45:45;100611.81;;;14.39;100.00
10852;BME280;5479;52.046;6.314;2022-11-15T10:48:24;100608.13;;;14.18;100.00
10852;BME280;5479;52.046;6.314;2022-11-15T10:50:54;100606.19;;;14.09;100.00
10852;BME280;5479;52.046;6.314;2022-11-15T10:53:29;100607.59;;;14.02;100.00
10852;BME280;5479;52.046;6.314;2022-11-15T10:56:02;100611.34;;;13.65;100.00
10852;BME280;5479;52.046;6.314;2022-11-15T10:58:34;100610.97;;;13.35;100.00
10852;BME280;5479;52.046;6.314;2022-11-15T11:01:11;100600.56;;;13.32;100.00
10852;BME280;5479;52.046;6.314;2022-11-15T11:03:42;100586.53;;;13.99;100.00
10852;BME280;5479;52.046;6.314;2022-11-15T11:06:12;100590.19;;;13.98;100.00
10852;BME280;5479;52.046;6.314;2022-11-15T11:08:53;100586.25;;;13.80;100.00
10852;BME280;5479;52.046;6.314;2022-11-15T11:11:22;100590.94;;;13.76;100.00
10852;BME280;5479;52.046;6.314;2022-11-15T11:13:51;100577.81;;;13.97;100.00
10852;BME280;5479;52.046;6.314;2022-11-15T11:16:37;100566.28;;;14.31;100.00
10852;BME280;5479;52.046;6.314;2022-11-15T11:19:32;100555.16;;;14.71;100.00
10852;BME280;5479;52.046;6.314;2022-11-15T11:22:11;100550.69;;;14.60;100.00
10852;BME280;5479;52.046;6.314;2022-11-15T11:24:45;100552.00;;;14.55;100.00
10852;BME280;5479;52.046;6.314;2022-11-15T11:27:25;100555.41;;;14.57;100.00
10852;BME280;5479;52.046;6.314;2022-11-15T11:30:05;100552.59;;;14.69;100.00
10852;BME280;5479;52.046;6.314;2022-11-15T11:32:49;100557.44;;;14.86;100.00
10852;BME280;5479;52.046;6.314;2022-11-15T11:35:22;100554.75;;;14.86;100.00
10852;BME280;5479;52.046;6.314;2022-11-15T11:37:53;100546.59;;;14.99;100.00
10852;BME280;5479;52.046;6.314;2022-11-15T11:40:29;100545.66;;;14.89;100.00
10852;BME280;5479;52.046;6.314;2022-11-15T11:43:06;100542.28;;;14.87;100.00
10852;BME280;5479;52.046;6.314;2022-11-15T11:46:03;100544.00;;;14.66;100.00
10852;BME280;5479;52.046;6.314;2022-11-15T11:48:41;100538.19;;;14.61;100.00
10852;BME280;5479;52.046;6.314;2022-11-15T11:51:18;100552.56;;;14.80;100.00
10852;BME280;5479;52.046;6.314;2022-11-15T11:53:53;100543.19;;;15.08;100.00
10852;BME280;5479;52.046;6.314;2022-11-15T11:56:26;100540.66;;;14.95;100.00
10852;BME280;5479;52.046;6.314;2022-11-15T11:58:57;100543.53;;;14.49;100.00
10852;BME280;5479;52.046;6.314;2022-11-15T12:01:34;100536.25;;;14.40;100.00
10852;BME280;5479;52.046;6.314;2022-11-15T12:04:09;100548.31;;;14.11;100.00
10852;BME280;5479;52.046;6.314;2022-11-15T12:06:47;100551.47;;;14.16;100.00
10852;BME280;5479;52.046;6.314;2022-11-15T12:09:22;100555.59;;;14.09;100.00
10852;BME280;5479;52.046;6.314;2022-11-15T12:11:55;100553.84;;;13.97;100.00
10852;BME280;5479;52.046;6.314;2022-11-15T12:14:29;100544.75;;;13.77;100.00
10852;BME280;5479;52.046;6.314;2022-11-15T12:17:00;100541.28;;;13.88;100.00
10852;BME280;5479;52.046;6.314;2022-11-15T12:19:29;100537.16;;;13.95;100.00
10852;BME280;5479;52.046;6.314;2022-11-15T12:22:03;100532.28;;;13.67;100.00
10852;BME280;5479;52.046;6.314;2022-11-15T12:24:39;100532.19;;;13.45;100.00
10852;BME280;5479;52.046;6.314;2022-11-15T12:27:15;100522.72;;;13.41;100.00
10852;BME280;5479;52.046;6.314;2022-11-15T12:29:47;100507.50;;;13.32;100.00
10852;BME280;5479;52.046;6.314;2022-11-15T12:32:26;100499.34;;;13.22;100.00
10852;BME280;5479;52.046;6.314;2022-11-15T12:34:57;100489.09;;;13.28;100.00
10852;BME280;5479;52.046;6.314;2022-11-15T12:37:49;100484.78;;;13.39;100.00
10852;BME280;5479;52.046;6.314;2022-11-15T12:40:32;100481.03;;;13.41;100.00
10852;BME280;5479;52.046;6.314;2022-11-15T12:45:48;100465.25;;;13.27;100.00
10852;BME280;5479;52.046;6.314;2022-11-15T12:48:45;100468.69;;;13.29;100.00
10852;BME280;5479;52.046;6.314;2022-11-15T12:51:14;100463.94;;;13.32;100.00
10852;BME280;5479;52.046;6.314;2022-11-15T12:53:43;100456.63;;;13.47;100.00
10852;BME280;5479;52.046;6.314;2022-11-15T12:56:22;100447.34;;;13.53;100.00
10852;BME280;5479;52.046;6.314;2022-11-15T12:58:55;100444.91;;;13.50;100.00
10852;BME280;5479;52.046;6.314;2022-11-15T13:01:58;100434.72;;;13.44;100.00
10852;BME280;5479;52.046;6.314;2022-11-15T13:04:28;100433.06;;;13.43;100.00
10852;BME280;5479;52.046;6.314;2022-11-15T13:07:00;100424.22;;;13.42;100.00
10852;BME280;5479;52.046;6.314;2022-11-15T13:09:53;100423.56;;;13.27;100.00
10852;BME280;5479;52.046;6.314;2022-11-15T13:12:54;100422.66;;;13.40;100.00
10852;BME280;5479;52.046;6.314;2022-11-15T13:15:55;100415.88;;;13.47;100.00
10852;BME280;5479;52.046;6.314;2022-11-15T13:18:32;100405.00;;;13.39;100.00
10852;BME280;5479;52.046;6.314;2022-11-15T13:21:01;100405.94;;;13.26;100.00
10852;BME280;5479;52.046;6.314;2022-11-15T13:23:55;100401.53;;;13.14;100.00
10852;BME280;5479;52.046;6.314;2022-11-15T13:26:24;100409.31;;;13.28;100.00
10852;BME280;5479;52.046;6.314;2022-11-15T13:28:52;100401.16;;;13.43;100.00